0G7 weather

Finger Lakes Regional Airport
Seneca Falls, New York, United States

Public forecast

Using degrees Fahrenheit for public forecast. Weather courtesy of forecast.io.

METAR (pilot weather report)

Closest report is Penn Yan Airport, 19.0 nm (35.3 km) SW. Retrieved 2019/05/20 23:53 UTC (44 minutes ago):

KPEO 202353Z AUTO 27016G26KT 10SM FEW039 SCT046 BKN065 16/07 A2988 RMK AO2 PK WND 27030/2256 SLP115 T01560067 10233 20144 51028

TAF (pilot weather forecast)

Forecast is more than 12 hours old.

Closest forecast is Ithaca Tompkins Regional Airport, 27.5 nm (51.0 km) SSE. Retrieved 2019/05/20 00:22 UTC (1 day ago):

TAF KITH 202320Z 2100/2124 28012G18KT P6SM BKN040 FM210200 29013KT P6SM BKN030 FM210600 30014KT P6SM BKN018 FM211000 30013KT P6SM SCT200